Station: Bridgetown  

  Atmospheric Gas Attenuation - ITU Rec 676-11   ----------------- dB/100km -----------------
Date Time Temp RH % AH g/m3 Dew Point Wind Direction Speed kph Gust kph Barometer mB Rainfall Since 9am 24GHz 47GHz 76GHz 122GHz 134GHz 241GHz
08/05 09:20 15.1 72 9.29 10.1 9 13 1032.5 0 21.0 27.4 42.8 112.2 107.5 370.3
08/05 09:10 14.7 74 9.32 10.1 6 7 1032.6 0 21.1 27.5 43.1 113.1 108.5 373.7
08/05 09:00 14.2 75 9.16 9.8 4 9 1032.6 0 20.7 27.4 42.8 112.1 107.0 368.4
08/05 08:50 13.2 78 8.96 9.4 4 6 1032.6 1 20.4 27.4 42.5 111.3 105.7 363.6
08/05 08:40 12.7 79 8.79 9.1 6 6 1032.6 1 20.0 27.3 42.0 110.1 104.0 357.7
08/05 08:30 12.7 82 9.13 9.7 4 9 1032.7 1 20.8 27.9 43.4 113.9 108.7 374.1
08/05 08:20 11.9 83 8.79 9.2 2 2 1032.7 1 20.1 27.5 42.5 111.2 105.1 361.4
08/05 08:10 11.2 87 8.82 9.2 2 2 1032.7 1 20.2 27.8 43.0 112.6 106.5 366.2
08/05 08:00 10.1 92 8.7 8.9 2 9 1032.6 1 20.0 27.9 43.0 112.8 106.3 365.4
08/05 07:50 8.9 93 8.15 7.8 2 4 1032.5 1 18.8 27.4 41.3 108.2 100.2 343.7
08/05 07:40 8.2 91 7.62 6.9 2 4 1032.5 1 17.7 26.7 39.4 103.1 93.6 320.7
08/05 07:30 8.5 92 7.86 7.3 2 4 1032.4 1 18.2 27.0 40.3 105.4 96.6 331.2
08/05 07:20 7.9 90 7.4 6.3 4 6 1032.2 1 17.3 26.4 38.6 101.0 90.9 311.1
08/05 07:10 8.3 96 8.09 7.7 4 4 1032.1 1 18.7 27.4 41.4 108.3 100.1 343.3
08/05 07:00 7 92 7.13 5.8 2 4 1032.1 1 16.7 26.2 37.9 99.1 88.2 301.5
08/05 06:50 7.7 91 7.38 6.3 2 2 1032.1 1 17.2 26.4 38.6 101.0 90.8 310.9
08/05 06:40 8.3 93 7.84 7.2 4 6 1032 1 18.2 27.0 40.3 105.4 96.5 330.9
08/05 06:30 7.8 94 7.67 6.9 4 6 1031.9 1 17.9 26.8 39.8 104.1 94.7 324.6
08/05 06:20 7.9 94 7.72 7 2 4 1031.9 1 18.0 26.9 40.0 104.6 95.3 326.7
08/05 06:10 7.5 91 7.29 6.2 2 4 1031.9 1 17.1 26.3 38.4 100.2 89.8 307.3
08/05 06:00 8.2 90 7.54 6.7 2 6 1031.9 1 17.6 26.5 39.1 102.1 92.4 316.6
08/05 05:50 7.6 91 7.33 6.2 2 2 1031.8 1 17.1 26.3 38.5 100.5 90.2 308.8
08/05 05:40 8.3 91 7.67 6.9 2 4 1031.8 1 17.8 26.7 39.6 103.5 94.1 322.5
08/05 05:30 8 92 7.61 6.8 2 6 1031.8 1 17.7 26.7 39.5 103.2 93.7 320.9
08/05 05:20 7.9 91 7.48 6.5 0 0 1031.8 1 17.4 26.5 39.0 101.8 92.0 314.9
08/05 05:10 8.3 91 7.67 7 0 0 1031.7 1 17.8 26.7 39.6 103.4 94.1 322.5
08/05 05:00 9.1 89 7.9 7.4 4 11 1031.6 1 18.3 26.8 40.1 105.0 96.3 330.4
08/05 04:50 8.4 90 7.64 6.8 4 4 1031.5 1 17.8 26.6 39.4 103.0 93.6 320.6
08/05 04:40 9 82 7.23 6.2 2 4 1031.5 1 16.9 25.7 37.4 97.6 87.2 298.5
08/05 04:30 9.8 88 8.17 7.9 6 7 1031.4 1 18.8 27.1 40.9 107.0 99.2 340.4
08/05 04:20 9.6 91 8.34 8.2 6 6 1031.4 1 19.2 27.4 41.7 109.2 101.8 349.6
08/05 04:10 8.6 89 7.65 6.9 2 4 1031.4 1 17.8 26.6 39.3 102.8 93.5 320.2
08/05 04:00 8.4 90 7.64 6.9 2 6 1031.4 1 17.8 26.6 39.4 102.9 93.6 320.6
08/05 03:50 9.2 93 8.31 8.1 2 4 1031.3 1 19.2 27.5 41.8 109.5 101.9 349.9
08/05 03:40 8.6 93 7.99 7.5 0 0 1031.3 1 18.5 27.1 40.7 106.6 98.2 336.8
08/05 03:30 8.7 90 7.79 7.2 0 4 1031.2 1 18.1 26.8 39.8 104.2 95.3 326.6
08/05 03:20 9.1 90 7.99 7.5 2 2 1031.2 1 18.5 27.0 40.5 105.9 97.5 334.6
08/05 03:10 9.7 87 8.02 7.6 2 4 1031.3 1 18.5 26.8 40.3 105.5 97.2 333.5
08/05 03:00 10.2 87 8.28 8.1 4 7 1031.3 1 19.1 27.1 41.1 107.7 100.2 344.0
08/05 02:50 10.9 86 8.56 8.6 2 4 1031.3 1 19.6 27.4 42.0 109.9 103.1 354.5
08/05 02:40 10.3 86 8.24 8 4 4 1031.3 1 19.0 27.0 40.9 107.1 99.5 341.6
08/05 02:30 11.1 85 8.56 8.7 2 6 1031.3 1 19.6 27.3 41.8 109.6 102.9 353.6
08/05 02:20 11.4 84 8.62 8.8 6 7 1031.3 1 19.7 27.3 41.9 109.9 103.3 355.1
08/05 02:10 11.4 84 8.62 8.8 4 4 1031.3 1 19.7 27.3 41.9 109.9 103.3 355.1
08/05 02:00 11.7 83 8.68 8.9 4 6 1031.4 1 19.8 27.4 42.0 110.1 103.7 356.7
08/05 01:50 11.9 82 8.69 8.9 4 4 1031.3 1 19.9 27.3 42.0 110.0 103.6 356.2
08/05 01:40 11.9 82 8.69 8.9 4 6 1031.4 1 19.9 27.3 42.0 110.0 103.6 356.2
08/05 01:30 11.9 81 8.58 8.7 6 13 1031.3 1 19.6 27.1 41.5 108.7 102.1 350.9
08/05 01:20 11.8 80 8.42 8.4 4 7 1031.4 1 19.3 26.9 40.9 107.1 100.0 343.7
08/05 01:10 12.3 79 8.58 8.7 4 6 1031.4 1 19.6 27.0 41.3 108.2 101.6 349.2
08/05 01:00 12.4 79 8.63 8.9 6 11 1031.4 1 19.7 27.1 41.5 108.6 102.1 351.1
08/05 00:50 12.1 77 8.26 8.3 2 4 1031.4 1 18.9 26.5 40.1 104.9 97.5 334.8
08/05 00:40 12.3 76 8.25 8.3 6 7 1031.3 1 18.9 26.4 39.9 104.5 97.1 333.5
08/05 00:30 12.3 76 8.25 8.2 6 11 1031.3 1 18.9 26.4 39.9 104.5 97.1 333.5
08/05 00:20 12.6 74 8.19 8.1 7 9 1031.3 1 18.8 26.3 39.5 103.5 95.9 329.4
08/05 00:10 12.5 73 8.03 7.8 6 7 1031.3 1 18.4 26.0 38.9 101.9 93.9 322.3
08/05 00:00 12.7 71 7.9 7.6 6 11 1031.3 1 18.1 25.8 38.3 100.2 91.9 315.5
07/05 23:50 12.6 70 7.74 7.4 6 7 1031.3 1 17.8 25.5 37.7 98.6 89.9 308.5
07/05 23:40 12.7 69 7.68 7.1 6 6 1031.3 1 17.7 25.4 37.4 97.9 89.0 305.3
07/05 23:30 12.7 69 7.68 7.2 6 13 1031.3 1 17.7 25.4 37.4 97.9 89.0 305.3
07/05 23:20 13 68 7.71 7.2 6 13 1031.3 1 17.7 25.4 37.4 97.8 89.1 305.5
07/05 23:10 13.3 67 7.74 7.3 6 7 1031.4 1 17.8 25.3 37.4 97.8 89.1 305.8
07/05 23:00 13.1 67 7.65 7.1 6 13 1031.4 1 17.6 25.2 37.1 97.1 88.2 302.4
07/05 22:50 13.1 67 7.65 7.1 7 11 1031.4 1 17.6 25.2 37.1 97.1 88.2 302.4
07/05 22:40 13.2 66 7.58 7 4 4 1031.5 1 17.4 25.1 36.8 96.2 87.2 298.9
07/05 22:30 13 68 7.71 7.2 4 7 1031.5 1 17.7 25.4 37.4 97.9 89.1 305.6
07/05 22:20 13.1 67 7.65 7.1 4 7 1031.6 1 17.6 25.3 37.2 97.1 88.2 302.5
07/05 22:10 13.2 67 7.69 7.2 4 4 1031.6 1 17.7 25.3 37.3 97.4 88.6 303.9
07/05 22:00 13.4 66 7.67 7.2 4 7 1031.5 1 17.6 25.2 37.1 96.9 88.1 302.2
07/05 21:50 13.4 65 7.56 7.1 7 7 1031.4 1 17.4 25.0 36.7 95.8 86.7 297.2
07/05 21:40 13.5 65 7.6 7.2 4 6 1031.4 1 17.5 25.1 36.8 96.1 87.1 298.6
07/05 21:30 13.4 66 7.67 7.2 4 9 1031.3 1 17.6 25.2 37.1 96.9 88.1 302.2
07/05 21:20 13.4 65 7.56 7.1 6 7 1031.2 1 17.4 25.0 36.6 95.8 86.7 297.1
07/05 21:10 12.5 68 7.48 6.7 6 6 1031.2 1 17.2 25.1 36.7 96.0 86.6 296.9
07/05 21:00 12 74 7.89 7.5 6 11 1031.1 1 18.1 25.9 38.6 101.0 92.6 317.8
07/05 20:50 10.8 80 7.91 7.5 6 7 1030.9 1 18.2 26.3 39.3 102.7 94.3 323.5
07/05 20:40 9.7 83 7.65 6.9 6 6 1030.9 1 17.7 26.2 38.7 101.3 92.1 315.6
07/05 20:30 9.1 88 7.81 7.2 2 6 1030.8 1 18.1 26.6 39.7 103.9 95.0 325.8
07/05 20:20 9.4 87 7.87 7.3 4 4 1030.8 1 18.2 26.7 39.8 104.1 95.5 327.4
07/05 20:10 9.4 88 7.96 7.5 0 0 1030.8 1 18.4 26.8 40.2 105.2 96.7 331.8
07/05 20:00 9.6 87 7.97 7.5 0 0 1030.7 1 18.4 26.8 40.1 105.0 96.6 331.4
07/05 19:50 9.9 85 7.94 7.5 0 0 1030.7 1 18.3 26.6 39.8 104.2 95.8 328.7
07/05 19:40 10.1 83 7.85 7.3 0 0 1030.5 1 18.1 26.4 39.4 103.0 94.3 323.5
07/05 19:30 10.7 85 8.35 8.3 0 0 1030.4 1 19.2 27.1 41.1 107.7 100.4 344.9
07/05 19:20 10.7 84 8.25 8.1 0 0 1030.4 1 19.0 26.9 40.7 106.6 99.0 340.1
07/05 19:10 10.9 80 7.96 7.7 0 0 1030.5 1 18.3 26.4 39.4 103.1 94.8 325.4
07/05 19:00 11.6 79 8.21 8.1 0 0 1030.4 1 18.8 26.6 40.1 104.9 97.3 334.3
07/05 18:50 12.2 77 8.31 8.4 0 0 1030.4 1 19.0 26.5 40.2 105.2 97.9 336.5
07/05 18:40 12.8 74 8.29 8.4 0 0 1030.3 1 19.0 26.3 39.8 104.2 96.9 333.0
07/05 18:30 13.3 69 7.97 7.7 0 0 1030.3 1 18.3 25.7 38.3 100.1 92.1 316.0
07/05 18:20 14 66 7.96 7.7 0 0 1030.2 1 18.2 25.4 37.9 99.1 91.1 312.8
07/05 18:10 14.5 63 7.84 7.7 0 0 1030.1 1 17.9 25.1 37.2 97.2 89.0 305.4
07/05 18:00 15.2 61 7.92 7.7 0 2 1030 1 18.1 25.0 37.2 97.2 89.2 306.2
07/05 17:50 16.4 56 7.82 7.6 4 4 1030.1 1 17.8 24.6 36.2 94.8 86.6 297.3
07/05 17:40 17.3 52 7.66 7.3 0 0 1030.1 1 17.4 24.1 35.2 92.1 83.6 287.1
07/05 17:30 17.8 51 7.74 7.5 4 7 1030 1 17.6 24.1 35.3 92.3 84.1 288.7
07/05 17:20 17.6 52 7.8 7.6 4 6 1030 1 17.7 24.2 35.6 93.1 85.0 292.0
07/05 17:10 17.9 51 7.79 7.6 2 4 1029.9 1 17.7 24.1 35.5 92.7 84.6 290.5
07/05 17:00 18.4 49 7.71 7.5 6 11 1030 1 17.5 23.9 35.0 91.3 83.1 285.3
07/05 16:50 18.7 48 7.68 7.7 7 9 1030.1 1 17.4 23.7 34.7 90.7 82.4 283.0

Last Refresh: 08-May-2026 11:04:00

Bureau of Meteorology